sensor_id;sensor_type;location;lat;lon;timestamp;P1;durP1;ratioP1;P2;durP2;ratioP2
22894;SDS011;11614;52.494;6.976;2022-10-31T00:00:50;38.00;;;19.33;;
22894;SDS011;11614;52.494;6.976;2022-10-31T00:03:16;32.77;;;20.13;;
22894;SDS011;11614;52.494;6.976;2022-10-31T00:05:43;32.27;;;19.40;;
22894;SDS011;11614;52.494;6.976;2022-10-31T00:08:10;37.40;;;19.77;;
22894;SDS011;11614;52.494;6.976;2022-10-31T00:10:37;40.23;;;21.03;;
22894;SDS011;11614;52.494;6.976;2022-10-31T00:13:03;42.07;;;22.57;;
22894;SDS011;11614;52.494;6.976;2022-10-31T00:15:29;39.87;;;22.23;;
22894;SDS011;11614;52.494;6.976;2022-10-31T00:17:55;39.23;;;20.07;;
22894;SDS011;11614;52.494;6.976;2022-10-31T00:20:21;42.13;;;22.97;;
22894;SDS011;11614;52.494;6.976;2022-10-31T00:22:47;40.00;;;21.83;;
22894;SDS011;11614;52.494;6.976;2022-10-31T00:25:13;36.43;;;20.47;;
22894;SDS011;11614;52.494;6.976;2022-10-31T00:27:39;37.13;;;20.00;;
22894;SDS011;11614;52.494;6.976;2022-10-31T00:30:05;35.03;;;19.57;;
22894;SDS011;11614;52.494;6.976;2022-10-31T00:32:31;34.87;;;17.37;;
22894;SDS011;11614;52.494;6.976;2022-10-31T00:34:57;41.33;;;20.67;;
22894;SDS011;11614;52.494;6.976;2022-10-31T00:37:23;33.73;;;19.90;;
22894;SDS011;11614;52.494;6.976;2022-10-31T00:39:49;35.03;;;18.23;;
22894;SDS011;11614;52.494;6.976;2022-10-31T00:42:15;32.33;;;17.27;;
22894;SDS011;11614;52.494;6.976;2022-10-31T00:44:41;34.83;;;19.60;;
22894;SDS011;11614;52.494;6.976;2022-10-31T00:47:07;28.77;;;16.27;;
22894;SDS011;11614;52.494;6.976;2022-10-31T00:49:33;29.20;;;16.17;;
22894;SDS011;11614;52.494;6.976;2022-10-31T00:51:59;27.03;;;14.40;;
22894;SDS011;11614;52.494;6.976;2022-10-31T00:54:25;29.07;;;14.33;;
22894;SDS011;11614;52.494;6.976;2022-10-31T00:56:50;23.57;;;13.10;;
22894;SDS011;11614;52.494;6.976;2022-10-31T00:59:16;22.13;;;11.97;;
22894;SDS011;11614;52.494;6.976;2022-10-31T01:01:42;20.97;;;9.87;;
22894;SDS011;11614;52.494;6.976;2022-10-31T01:04:08;22.07;;;12.13;;
22894;SDS011;11614;52.494;6.976;2022-10-31T01:06:34;20.57;;;10.40;;
22894;SDS011;11614;52.494;6.976;2022-10-31T01:09:00;18.53;;;10.13;;
22894;SDS011;11614;52.494;6.976;2022-10-31T01:11:26;15.03;;;10.07;;
22894;SDS011;11614;52.494;6.976;2022-10-31T01:13:53;16.00;;;9.93;;
22894;SDS011;11614;52.494;6.976;2022-10-31T01:16:21;18.07;;;10.27;;
22894;SDS011;11614;52.494;6.976;2022-10-31T01:18:47;16.23;;;8.73;;
22894;SDS011;11614;52.494;6.976;2022-10-31T01:21:15;15.53;;;9.37;;
22894;SDS011;11614;52.494;6.976;2022-10-31T01:23:41;18.30;;;10.20;;
22894;SDS011;11614;52.494;6.976;2022-10-31T01:28:34;19.90;;;9.90;;
22894;SDS011;11614;52.494;6.976;2022-10-31T01:31:01;18.90;;;10.33;;
22894;SDS011;11614;52.494;6.976;2022-10-31T01:33:27;21.50;;;10.63;;
22894;SDS011;11614;52.494;6.976;2022-10-31T01:35:53;19.63;;;11.17;;
22894;SDS011;11614;52.494;6.976;2022-10-31T01:38:19;18.27;;;10.77;;
22894;SDS011;11614;52.494;6.976;2022-10-31T01:40:45;17.27;;;9.87;;
22894;SDS011;11614;52.494;6.976;2022-10-31T01:43:14;17.37;;;10.57;;
22894;SDS011;11614;52.494;6.976;2022-10-31T01:45:40;16.07;;;9.47;;
22894;SDS011;11614;52.494;6.976;2022-10-31T01:48:10;17.73;;;10.07;;
22894;SDS011;11614;52.494;6.976;2022-10-31T01:50:39;20.53;;;10.63;;
22894;SDS011;11614;52.494;6.976;2022-10-31T01:53:05;17.70;;;11.33;;
22894;SDS011;11614;52.494;6.976;2022-10-31T01:55:32;18.07;;;10.40;;
22894;SDS011;11614;52.494;6.976;2022-10-31T01:58:13;20.10;;;11.33;;
22894;SDS011;11614;52.494;6.976;2022-10-31T02:00:39;21.97;;;11.60;;
22894;SDS011;11614;52.494;6.976;2022-10-31T02:03:07;24.43;;;11.80;;
22894;SDS011;11614;52.494;6.976;2022-10-31T02:05:33;26.97;;;12.67;;
22894;SDS011;11614;52.494;6.976;2022-10-31T02:08:13;21.73;;;12.30;;
22894;SDS011;11614;52.494;6.976;2022-10-31T02:10:39;23.53;;;12.07;;
22894;SDS011;11614;52.494;6.976;2022-10-31T02:13:06;22.67;;;12.30;;
22894;SDS011;11614;52.494;6.976;2022-10-31T02:15:33;23.10;;;12.40;;
22894;SDS011;11614;52.494;6.976;2022-10-31T02:18:00;22.90;;;12.50;;
22894;SDS011;11614;52.494;6.976;2022-10-31T02:20:38;24.13;;;12.00;;
22894;SDS011;11614;52.494;6.976;2022-10-31T02:28:19;24.23;;;13.60;;
22894;SDS011;11614;52.494;6.976;2022-10-31T02:31:11;21.90;;;11.83;;
22894;SDS011;11614;52.494;6.976;2022-10-31T02:33:43;24.80;;;15.37;;
22894;SDS011;11614;52.494;6.976;2022-10-31T02:36:23;28.60;;;14.80;;
22894;SDS011;11614;52.494;6.976;2022-10-31T02:39:12;22.53;;;14.03;;
22894;SDS011;11614;52.494;6.976;2022-10-31T02:41:48;26.00;;;13.67;;
22894;SDS011;11614;52.494;6.976;2022-10-31T02:44:39;27.27;;;14.03;;
22894;SDS011;11614;52.494;6.976;2022-10-31T02:47:11;30.80;;;16.07;;
22894;SDS011;11614;52.494;6.976;2022-10-31T02:49:45;28.53;;;15.07;;
22894;SDS011;11614;52.494;6.976;2022-10-31T02:52:27;30.00;;;15.97;;
22894;SDS011;11614;52.494;6.976;2022-10-31T02:54:54;30.40;;;16.37;;
22894;SDS011;11614;52.494;6.976;2022-10-31T02:57:21;28.33;;;15.30;;
22894;SDS011;11614;52.494;6.976;2022-10-31T02:59:52;25.50;;;15.60;;
22894;SDS011;11614;52.494;6.976;2022-10-31T03:05:16;28.80;;;16.30;;
22894;SDS011;11614;52.494;6.976;2022-10-31T03:10:53;34.57;;;16.47;;
22894;SDS011;11614;52.494;6.976;2022-10-31T03:16:22;28.70;;;15.57;;
22894;SDS011;11614;52.494;6.976;2022-10-31T03:18:57;32.13;;;17.43;;
22894;SDS011;11614;52.494;6.976;2022-10-31T03:21:34;31.33;;;17.37;;
22894;SDS011;11614;52.494;6.976;2022-10-31T03:24:04;34.57;;;19.63;;
22894;SDS011;11614;52.494;6.976;2022-10-31T03:26:34;33.53;;;18.47;;
22894;SDS011;11614;52.494;6.976;2022-10-31T03:29:04;29.60;;;17.27;;
22894;SDS011;11614;52.494;6.976;2022-10-31T03:31:39;35.00;;;18.30;;
22894;SDS011;11614;52.494;6.976;2022-10-31T03:34:09;33.93;;;17.57;;
22894;SDS011;11614;52.494;6.976;2022-10-31T03:36:38;34.37;;;18.77;;
22894;SDS011;11614;52.494;6.976;2022-10-31T03:39:06;37.17;;;18.80;;
22894;SDS011;11614;52.494;6.976;2022-10-31T03:41:38;30.07;;;17.73;;
22894;SDS011;11614;52.494;6.976;2022-10-31T03:44:12;34.27;;;18.80;;
22894;SDS011;11614;52.494;6.976;2022-10-31T03:46:41;37.33;;;18.40;;
22894;SDS011;11614;52.494;6.976;2022-10-31T03:49:08;31.57;;;17.97;;
22894;SDS011;11614;52.494;6.976;2022-10-31T03:51:43;37.13;;;18.60;;
22894;SDS011;11614;52.494;6.976;2022-10-31T03:56:58;36.87;;;20.23;;
22894;SDS011;11614;52.494;6.976;2022-10-31T03:59:41;31.37;;;18.17;;
22894;SDS011;11614;52.494;6.976;2022-10-31T04:02:14;36.13;;;20.73;;
22894;SDS011;11614;52.494;6.976;2022-10-31T04:04:41;37.30;;;21.87;;
22894;SDS011;11614;52.494;6.976;2022-10-31T04:07:08;40.43;;;21.20;;
22894;SDS011;11614;52.494;6.976;2022-10-31T04:09:36;34.07;;;19.57;;
22894;SDS011;11614;52.494;6.976;2022-10-31T04:12:04;40.13;;;22.60;;
22894;SDS011;11614;52.494;6.976;2022-10-31T04:14:34;34.13;;;20.57;;
22894;SDS011;11614;52.494;6.976;2022-10-31T04:17:03;41.37;;;20.97;;
22894;SDS011;11614;52.494;6.976;2022-10-31T04:19:32;37.30;;;20.37;;
22894;SDS011;11614;52.494;6.976;2022-10-31T04:21:58;36.50;;;21.17;;
22894;SDS011;11614;52.494;6.976;2022-10-31T04:24:24;35.13;;;19.67;;
22894;SDS011;11614;52.494;6.976;2022-10-31T04:26:50;35.77;;;20.93;;
22894;SDS011;11614;52.494;6.976;2022-10-31T04:29:16;36.47;;;20.87;;
22894;SDS011;11614;52.494;6.976;2022-10-31T04:31:42;38.47;;;21.03;;
22894;SDS011;11614;52.494;6.976;2022-10-31T04:34:08;39.20;;;22.10;;
22894;SDS011;11614;52.494;6.976;2022-10-31T04:36:34;40.37;;;21.87;;
22894;SDS011;11614;52.494;6.976;2022-10-31T04:39:00;43.57;;;23.80;;
22894;SDS011;11614;52.494;6.976;2022-10-31T04:41:26;47.73;;;25.63;;
22894;SDS011;11614;52.494;6.976;2022-10-31T04:43:52;53.07;;;27.50;;
22894;SDS011;11614;52.494;6.976;2022-10-31T04:46:18;56.73;;;28.63;;
22894;SDS011;11614;52.494;6.976;2022-10-31T04:48:44;56.23;;;29.87;;
22894;SDS011;11614;52.494;6.976;2022-10-31T04:51:10;62.07;;;29.50;;
22894;SDS011;11614;52.494;6.976;2022-10-31T04:53:36;48.77;;;26.87;;
22894;SDS011;11614;52.494;6.976;2022-10-31T04:56:02;51.87;;;26.23;;
22894;SDS011;11614;52.494;6.976;2022-10-31T04:58:28;42.53;;;23.90;;
22894;SDS011;11614;52.494;6.976;2022-10-31T05:00:54;50.70;;;25.07;;
22894;SDS011;11614;52.494;6.976;2022-10-31T05:03:20;42.67;;;24.10;;
22894;SDS011;11614;52.494;6.976;2022-10-31T05:05:46;39.27;;;21.73;;
22894;SDS011;11614;52.494;6.976;2022-10-31T05:08:13;37.63;;;20.27;;
22894;SDS011;11614;52.494;6.976;2022-10-31T05:10:39;40.67;;;21.50;;
22894;SDS011;11614;52.494;6.976;2022-10-31T05:13:05;34.83;;;19.47;;
22894;SDS011;11614;52.494;6.976;2022-10-31T05:15:31;34.10;;;19.33;;
22894;SDS011;11614;52.494;6.976;2022-10-31T05:17:57;34.63;;;18.60;;
22894;SDS011;11614;52.494;6.976;2022-10-31T05:20:24;35.77;;;19.90;;
22894;SDS011;11614;52.494;6.976;2022-10-31T05:22:51;31.33;;;18.30;;
22894;SDS011;11614;52.494;6.976;2022-10-31T05:25:18;27.90;;;17.80;;
22894;SDS011;11614;52.494;6.976;2022-10-31T05:27:45;28.03;;;16.43;;
22894;SDS011;11614;52.494;6.976;2022-10-31T05:30:12;36.07;;;21.00;;
22894;SDS011;11614;52.494;6.976;2022-10-31T05:32:40;36.70;;;19.13;;
22894;SDS011;11614;52.494;6.976;2022-10-31T05:35:07;37.67;;;21.63;;
22894;SDS011;11614;52.494;6.976;2022-10-31T05:37:34;37.00;;;20.83;;
22894;SDS011;11614;52.494;6.976;2022-10-31T05:40:00;36.87;;;21.33;;
22894;SDS011;11614;52.494;6.976;2022-10-31T05:42:26;37.93;;;19.53;;
22894;SDS011;11614;52.494;6.976;2022-10-31T05:44:52;35.37;;;20.10;;
22894;SDS011;11614;52.494;6.976;2022-10-31T05:47:18;31.03;;;19.27;;
22894;SDS011;11614;52.494;6.976;2022-10-31T05:49:44;29.53;;;17.53;;
22894;SDS011;11614;52.494;6.976;2022-10-31T05:52:10;39.03;;;17.10;;
22894;SDS011;11614;52.494;6.976;2022-10-31T05:54:36;23.60;;;14.83;;
22894;SDS011;11614;52.494;6.976;2022-10-31T05:57:02;24.43;;;14.53;;
22894;SDS011;11614;52.494;6.976;2022-10-31T05:59:28;31.67;;;16.80;;
22894;SDS011;11614;52.494;6.976;2022-10-31T06:01:53;35.23;;;17.63;;
22894;SDS011;11614;52.494;6.976;2022-10-31T06:04:19;36.57;;;18.80;;
22894;SDS011;11614;52.494;6.976;2022-10-31T06:06:45;30.13;;;17.07;;
22894;SDS011;11614;52.494;6.976;2022-10-31T06:09:11;29.13;;;17.23;;
22894;SDS011;11614;52.494;6.976;2022-10-31T06:11:37;31.50;;;16.97;;
22894;SDS011;11614;52.494;6.976;2022-10-31T06:14:03;26.70;;;16.83;;
22894;SDS011;11614;52.494;6.976;2022-10-31T06:16:29;27.70;;;16.23;;
22894;SDS011;11614;52.494;6.976;2022-10-31T06:18:55;25.57;;;16.80;;
22894;SDS011;11614;52.494;6.976;2022-10-31T06:21:21;27.23;;;15.93;;
22894;SDS011;11614;52.494;6.976;2022-10-31T06:23:47;29.37;;;16.67;;
22894;SDS011;11614;52.494;6.976;2022-10-31T06:26:13;25.33;;;16.13;;
22894;SDS011;11614;52.494;6.976;2022-10-31T06:28:39;31.10;;;16.80;;
22894;SDS011;11614;52.494;6.976;2022-10-31T06:31:05;30.10;;;18.23;;
22894;SDS011;11614;52.494;6.976;2022-10-31T06:33:32;31.20;;;17.87;;
22894;SDS011;11614;52.494;6.976;2022-10-31T06:35:58;33.43;;;19.87;;
22894;SDS011;11614;52.494;6.976;2022-10-31T06:38:25;33.67;;;20.60;;
22894;SDS011;11614;52.494;6.976;2022-10-31T06:40:51;32.03;;;19.97;;
22894;SDS011;11614;52.494;6.976;2022-10-31T06:43:17;40.00;;;20.73;;
22894;SDS011;11614;52.494;6.976;2022-10-31T06:45:43;37.53;;;20.20;;
22894;SDS011;11614;52.494;6.976;2022-10-31T06:48:09;43.33;;;23.97;;
22894;SDS011;11614;52.494;6.976;2022-10-31T06:50:34;51.07;;;25.20;;
22894;SDS011;11614;52.494;6.976;2022-10-31T06:53:00;46.80;;;25.57;;
22894;SDS011;11614;52.494;6.976;2022-10-31T06:55:26;48.17;;;26.07;;
22894;SDS011;11614;52.494;6.976;2022-10-31T06:57:59;38.23;;;21.00;;
22894;SDS011;11614;52.494;6.976;2022-10-31T07:00:25;37.33;;;20.00;;
22894;SDS011;11614;52.494;6.976;2022-10-31T07:02:52;30.33;;;17.97;;
22894;SDS011;11614;52.494;6.976;2022-10-31T07:05:22;29.10;;;16.00;;
22894;SDS011;11614;52.494;6.976;2022-10-31T07:07:51;32.23;;;16.90;;
22894;SDS011;11614;52.494;6.976;2022-10-31T07:10:18;31.57;;;17.07;;
22894;SDS011;11614;52.494;6.976;2022-10-31T07:12:44;34.40;;;17.10;;
22894;SDS011;11614;52.494;6.976;2022-10-31T07:15:10;27.13;;;16.73;;
22894;SDS011;11614;52.494;6.976;2022-10-31T07:17:36;25.73;;;15.57;;
22894;SDS011;11614;52.494;6.976;2022-10-31T07:20:02;27.47;;;15.87;;
22894;SDS011;11614;52.494;6.976;2022-10-31T07:22:32;28.70;;;16.10;;
22894;SDS011;11614;52.494;6.976;2022-10-31T07:24:58;25.23;;;15.23;;
22894;SDS011;11614;52.494;6.976;2022-10-31T07:27:24;28.10;;;15.67;;
22894;SDS011;11614;52.494;6.976;2022-10-31T07:29:50;25.50;;;14.77;;
22894;SDS011;11614;52.494;6.976;2022-10-31T07:32:16;32.97;;;16.90;;
22894;SDS011;11614;52.494;6.976;2022-10-31T07:34:41;33.50;;;19.47;;
22894;SDS011;11614;52.494;6.976;2022-10-31T07:37:07;31.93;;;17.80;;
22894;SDS011;11614;52.494;6.976;2022-10-31T07:39:33;31.93;;;17.83;;
22894;SDS011;11614;52.494;6.976;2022-10-31T07:41:59;37.50;;;19.63;;
22894;SDS011;11614;52.494;6.976;2022-10-31T07:44:25;34.57;;;18.30;;
22894;SDS011;11614;52.494;6.976;2022-10-31T07:46:51;34.40;;;19.93;;
22894;SDS011;11614;52.494;6.976;2022-10-31T07:49:17;31.63;;;17.43;;
22894;SDS011;11614;52.494;6.976;2022-10-31T07:51:43;35.60;;;18.73;;
22894;SDS011;11614;52.494;6.976;2022-10-31T07:54:09;42.43;;;21.37;;
22894;SDS011;11614;52.494;6.976;2022-10-31T07:56:35;40.97;;;23.20;;
22894;SDS011;11614;52.494;6.976;2022-10-31T07:59:00;48.73;;;24.67;;
22894;SDS011;11614;52.494;6.976;2022-10-31T08:01:26;43.17;;;24.53;;
22894;SDS011;11614;52.494;6.976;2022-10-31T08:03:52;47.87;;;25.67;;
22894;SDS011;11614;52.494;6.976;2022-10-31T08:06:18;46.43;;;25.60;;
22894;SDS011;11614;52.494;6.976;2022-10-31T08:08:44;38.47;;;23.57;;
22894;SDS011;11614;52.494;6.976;2022-10-31T08:11:09;41.80;;;24.10;;
22894;SDS011;11614;52.494;6.976;2022-10-31T08:13:35;45.40;;;26.17;;
22894;SDS011;11614;52.494;6.976;2022-10-31T08:16:01;47.47;;;25.83;;
22894;SDS011;11614;52.494;6.976;2022-10-31T08:18:29;50.20;;;27.57;;
22894;SDS011;11614;52.494;6.976;2022-10-31T08:20:55;45.63;;;25.83;;
22894;SDS011;11614;52.494;6.976;2022-10-31T08:23:21;41.37;;;26.20;;
22894;SDS011;11614;52.494;6.976;2022-10-31T08:25:47;42.27;;;24.37;;
22894;SDS011;11614;52.494;6.976;2022-10-31T08:28:13;38.83;;;24.20;;
22894;SDS011;11614;52.494;6.976;2022-10-31T08:30:39;35.60;;;22.80;;
22894;SDS011;11614;52.494;6.976;2022-10-31T08:33:06;38.77;;;25.13;;
22894;SDS011;11614;52.494;6.976;2022-10-31T08:35:34;31.63;;;20.83;;
22894;SDS011;11614;52.494;6.976;2022-10-31T08:38:00;32.50;;;20.57;;
22894;SDS011;11614;52.494;6.976;2022-10-31T08:40:27;30.33;;;19.83;;
22894;SDS011;11614;52.494;6.976;2022-10-31T08:42:57;32.17;;;19.60;;
22894;SDS011;11614;52.494;6.976;2022-10-31T08:45:23;33.07;;;19.37;;
22894;SDS011;11614;52.494;6.976;2022-10-31T08:47:49;29.60;;;19.03;;
22894;SDS011;11614;52.494;6.976;2022-10-31T08:50:16;31.77;;;18.57;;
22894;SDS011;11614;52.494;6.976;2022-10-31T08:52:42;31.20;;;19.73;;
22894;SDS011;11614;52.494;6.976;2022-10-31T08:55:08;29.57;;;19.17;;
22894;SDS011;11614;52.494;6.976;2022-10-31T08:57:34;31.70;;;20.20;;
22894;SDS011;11614;52.494;6.976;2022-10-31T09:00:00;33.07;;;19.33;;
22894;SDS011;11614;52.494;6.976;2022-10-31T09:02:26;30.67;;;19.43;;
22894;SDS011;11614;52.494;6.976;2022-10-31T09:04:51;33.67;;;20.03;;
22894;SDS011;11614;52.494;6.976;2022-10-31T09:07:17;34.27;;;20.27;;
22894;SDS011;11614;52.494;6.976;2022-10-31T09:09:43;32.13;;;20.37;;
22894;SDS011;11614;52.494;6.976;2022-10-31T09:12:09;34.73;;;20.23;;
22894;SDS011;11614;52.494;6.976;2022-10-31T09:14:35;27.27;;;18.63;;
22894;SDS011;11614;52.494;6.976;2022-10-31T09:17:01;29.97;;;19.20;;
22894;SDS011;11614;52.494;6.976;2022-10-31T09:19:27;30.57;;;19.93;;
22894;SDS011;11614;52.494;6.976;2022-10-31T09:21:53;30.03;;;19.87;;
22894;SDS011;11614;52.494;6.976;2022-10-31T09:24:21;37.00;;;19.57;;
22894;SDS011;11614;52.494;6.976;2022-10-31T09:26:47;28.70;;;19.17;;
22894;SDS011;11614;52.494;6.976;2022-10-31T09:29:13;31.13;;;19.70;;
22894;SDS011;11614;52.494;6.976;2022-10-31T09:31:39;29.83;;;18.77;;
22894;SDS011;11614;52.494;6.976;2022-10-31T09:34:05;25.47;;;18.20;;
22894;SDS011;11614;52.494;6.976;2022-10-31T09:36:31;31.00;;;19.17;;
22894;SDS011;11614;52.494;6.976;2022-10-31T09:38:57;29.07;;;18.63;;
22894;SDS011;11614;52.494;6.976;2022-10-31T09:41:32;29.87;;;18.77;;
22894;SDS011;11614;52.494;6.976;2022-10-31T09:44:13;34.37;;;19.50;;
22894;SDS011;11614;52.494;6.976;2022-10-31T09:51:42;28.40;;;17.20;;
22894;SDS011;11614;52.494;6.976;2022-10-31T09:54:12;31.03;;;19.80;;
22894;SDS011;11614;52.494;6.976;2022-10-31T09:56:39;31.93;;;18.53;;
22894;SDS011;11614;52.494;6.976;2022-10-31T09:59:06;33.17;;;20.13;;
22894;SDS011;11614;52.494;6.976;2022-10-31T10:01:53;28.43;;;18.63;;
22894;SDS011;11614;52.494;6.976;2022-10-31T10:07:14;26.47;;;17.30;;
22894;SDS011;11614;52.494;6.976;2022-10-31T10:09:42;27.33;;;18.43;;
22894;SDS011;11614;52.494;6.976;2022-10-31T10:17:24;25.70;;;17.27;;
22894;SDS011;11614;52.494;6.976;2022-10-31T10:25:21;23.20;;;15.35;;
22894;SDS011;11614;52.494;6.976;2022-10-31T10:30:26;20.17;;;13.35;;
22894;SDS011;11614;52.494;6.976;2022-10-31T10:32:56;19.58;;;12.77;;
22894;SDS011;11614;52.494;6.976;2022-10-31T10:35:25;15.35;;;11.48;;
22894;SDS011;11614;52.494;6.976;2022-10-31T10:37:56;18.80;;;13.43;;
22894;SDS011;11614;52.494;6.976;2022-10-31T10:40:23;16.13;;;11.57;;
22894;SDS011;11614;52.494;6.976;2022-10-31T10:42:55;19.95;;;13.63;;
22894;SDS011;11614;52.494;6.976;2022-10-31T10:45:40;17.23;;;11.80;;
22894;SDS011;11614;52.494;6.976;2022-10-31T10:50:54;14.73;;;9.65;;
22894;SDS011;11614;52.494;6.976;2022-10-31T10:53:43;18.92;;;12.75;;
22894;SDS011;11614;52.494;6.976;2022-10-31T10:56:40;15.13;;;10.32;;
22894;SDS011;11614;52.494;6.976;2022-10-31T10:59:09;11.63;;;8.40;;
22894;SDS011;11614;52.494;6.976;2022-10-31T11:01:37;16.55;;;11.07;;
22894;SDS011;11614;52.494;6.976;2022-10-31T11:04:05;15.50;;;10.82;;
22894;SDS011;11614;52.494;6.976;2022-10-31T11:06:40;17.13;;;9.23;;
22894;SDS011;11614;52.494;6.976;2022-10-31T11:09:09;18.45;;;10.35;;
22894;SDS011;11614;52.494;6.976;2022-10-31T11:11:35;18.02;;;8.93;;
22894;SDS011;11614;52.494;6.976;2022-10-31T11:14:12;15.55;;;9.27;;
22894;SDS011;11614;52.494;6.976;2022-10-31T11:16:39;12.02;;;7.30;;
22894;SDS011;11614;52.494;6.976;2022-10-31T11:21:34;9.50;;;5.18;;
22894;SDS011;11614;52.494;6.976;2022-10-31T11:26:29;8.80;;;4.50;;
22894;SDS011;11614;52.494;6.976;2022-10-31T11:28:59;17.00;;;9.63;;
22894;SDS011;11614;52.494;6.976;2022-10-31T11:31:27;11.73;;;6.83;;
22894;SDS011;11614;52.494;6.976;2022-10-31T11:33:56;12.20;;;8.27;;
22894;SDS011;11614;52.494;6.976;2022-10-31T11:36:24;12.43;;;7.73;;
22894;SDS011;11614;52.494;6.976;2022-10-31T11:38:51;13.00;;;9.70;;
22894;SDS011;11614;52.494;6.976;2022-10-31T11:41:25;14.10;;;8.70;;
22894;SDS011;11614;52.494;6.976;2022-10-31T11:43:54;13.23;;;9.53;;
22894;SDS011;11614;52.494;6.976;2022-10-31T11:46:39;20.60;;;11.43;;
22894;SDS011;11614;52.494;6.976;2022-10-31T11:49:11;26.43;;;18.30;;
22894;SDS011;11614;52.494;6.976;2022-10-31T11:51:39;13.27;;;8.93;;
22894;SDS011;11614;52.494;6.976;2022-10-31T11:54:05;26.27;;;17.27;;
22894;SDS011;11614;52.494;6.976;2022-10-31T11:56:38;12.85;;;7.78;;
22894;SDS011;11614;52.494;6.976;2022-10-31T11:59:05;12.70;;;8.23;;
22894;SDS011;11614;52.494;6.976;2022-10-31T12:01:32;10.07;;;7.45;;
22894;SDS011;11614;52.494;6.976;2022-10-31T12:04:08;28.27;;;21.27;;
22894;SDS011;11614;52.494;6.976;2022-10-31T12:06:38;14.63;;;9.02;;
22894;SDS011;11614;52.494;6.976;2022-10-31T12:09:23;25.43;;;17.67;;
22894;SDS011;11614;52.494;6.976;2022-10-31T12:11:59;9.52;;;6.65;;
22894;SDS011;11614;52.494;6.976;2022-10-31T12:14:50;12.97;;;8.37;;
22894;SDS011;11614;52.494;6.976;2022-10-31T12:17:21;19.23;;;10.32;;
22894;SDS011;11614;52.494;6.976;2022-10-31T12:30:27;10.50;;;8.15;;
22894;SDS011;11614;52.494;6.976;2022-10-31T12:33:06;17.27;;;8.13;;
22894;SDS011;11614;52.494;6.976;2022-10-31T12:43:45;8.77;;;5.73;;
22894;SDS011;11614;52.494;6.976;2022-10-31T12:46:09;9.37;;;5.00;;
22894;SDS011;11614;52.494;6.976;2022-10-31T12:51:10;13.57;;;8.73;;
22894;SDS011;11614;52.494;6.976;2022-10-31T13:01:33;10.85;;;7.40;;
22894;SDS011;11614;52.494;6.976;2022-10-31T13:04:05;14.38;;;8.60;;
22894;SDS011;11614;52.494;6.976;2022-10-31T13:06:40;10.88;;;7.47;;
22894;SDS011;11614;52.494;6.976;2022-10-31T13:09:09;10.82;;;6.32;;
22894;SDS011;11614;52.494;6.976;2022-10-31T13:11:46;20.67;;;12.38;;
22894;SDS011;11614;52.494;6.976;2022-10-31T13:16:48;18.95;;;12.23;;
22894;SDS011;11614;52.494;6.976;2022-10-31T13:24:31;16.42;;;11.38;;
22894;SDS011;11614;52.494;6.976;2022-10-31T13:27:01;15.88;;;9.65;;
22894;SDS011;11614;52.494;6.976;2022-10-31T13:29:29;22.40;;;10.17;;
22894;SDS011;11614;52.494;6.976;2022-10-31T13:31:58;8.80;;;5.47;;
22894;SDS011;11614;52.494;6.976;2022-10-31T13:34:25;18.27;;;8.75;;
22894;SDS011;11614;52.494;6.976;2022-10-31T13:40:06;24.33;;;13.77;;
22894;SDS011;11614;52.494;6.976;2022-10-31T13:44:35;14.97;;;7.70;;
22894;SDS011;11614;52.494;6.976;2022-10-31T13:47:03;21.37;;;13.10;;
22894;SDS011;11614;52.494;6.976;2022-10-31T13:54:40;21.90;;;13.13;;
22894;SDS011;11614;52.494;6.976;2022-10-31T13:57:19;22.23;;;15.00;;
22894;SDS011;11614;52.494;6.976;2022-10-31T13:59:50;22.63;;;14.07;;
22894;SDS011;11614;52.494;6.976;2022-10-31T14:02:17;22.63;;;15.00;;
22894;SDS011;11614;52.494;6.976;2022-10-31T14:04:46;20.27;;;10.87;;
22894;SDS011;11614;52.494;6.976;2022-10-31T14:07:17;16.67;;;10.10;;
22894;SDS011;11614;52.494;6.976;2022-10-31T14:12:40;19.37;;;9.47;;
22894;SDS011;11614;52.494;6.976;2022-10-31T14:15:16;22.53;;;13.23;;
22894;SDS011;11614;52.494;6.976;2022-10-31T14:18:25;21.23;;;13.77;;
22894;SDS011;11614;52.494;6.976;2022-10-31T14:20:38;25.80;;;16.13;;
22894;SDS011;11614;52.494;6.976;2022-10-31T14:23:11;26.60;;;15.13;;
22894;SDS011;11614;52.494;6.976;2022-10-31T14:25:37;46.53;;;28.67;;
22894;SDS011;11614;52.494;6.976;2022-10-31T14:28:20;40.97;;;23.90;;
22894;SDS011;11614;52.494;6.976;2022-10-31T14:30:53;35.33;;;18.97;;
22894;SDS011;11614;52.494;6.976;2022-10-31T14:33:19;121.87;;;66.57;;
22894;SDS011;11614;52.494;6.976;2022-10-31T14:35:50;40.83;;;27.20;;
22894;SDS011;11614;52.494;6.976;2022-10-31T14:40:52;42.47;;;30.37;;
22894;SDS011;11614;52.494;6.976;2022-10-31T14:51:23;25.47;;;15.30;;
22894;SDS011;11614;52.494;6.976;2022-10-31T14:53:53;23.00;;;13.03;;
22894;SDS011;11614;52.494;6.976;2022-10-31T14:56:22;12.83;;;7.10;;
22894;SDS011;11614;52.494;6.976;2022-10-31T14:58:49;13.27;;;7.53;;
22894;SDS011;11614;52.494;6.976;2022-10-31T15:01:22;15.27;;;8.30;;
22894;SDS011;11614;52.494;6.976;2022-10-31T15:03:48;19.63;;;10.13;;
22894;SDS011;11614;52.494;6.976;2022-10-31T15:06:15;25.30;;;14.13;;
22894;SDS011;11614;52.494;6.976;2022-10-31T15:08:45;16.20;;;9.67;;
22894;SDS011;11614;52.494;6.976;2022-10-31T15:11:22;25.67;;;15.70;;
22894;SDS011;11614;52.494;6.976;2022-10-31T15:16:19;29.43;;;15.60;;
22894;SDS011;11614;52.494;6.976;2022-10-31T15:18:47;29.70;;;17.27;;
22894;SDS011;11614;52.494;6.976;2022-10-31T15:21:15;19.53;;;10.43;;
22894;SDS011;11614;52.494;6.976;2022-10-31T15:23:41;25.63;;;16.57;;
22894;SDS011;11614;52.494;6.976;2022-10-31T15:26:11;24.23;;;15.57;;
22894;SDS011;11614;52.494;6.976;2022-10-31T15:28:40;26.37;;;15.13;;
22894;SDS011;11614;52.494;6.976;2022-10-31T15:31:12;22.60;;;13.20;;
22894;SDS011;11614;52.494;6.976;2022-10-31T15:33:40;29.30;;;17.40;;
22894;SDS011;11614;52.494;6.976;2022-10-31T15:36:16;28.73;;;14.20;;
22894;SDS011;11614;52.494;6.976;2022-10-31T15:38:43;25.07;;;15.67;;
22894;SDS011;11614;52.494;6.976;2022-10-31T15:41:27;25.20;;;13.73;;
22894;SDS011;11614;52.494;6.976;2022-10-31T15:43:54;26.23;;;14.47;;
22894;SDS011;11614;52.494;6.976;2022-10-31T15:46:20;27.07;;;17.40;;
22894;SDS011;11614;52.494;6.976;2022-10-31T15:48:47;29.30;;;17.97;;
22894;SDS011;11614;52.494;6.976;2022-10-31T15:51:13;33.13;;;19.07;;
22894;SDS011;11614;52.494;6.976;2022-10-31T15:56:08;26.40;;;14.03;;
22894;SDS011;11614;52.494;6.976;2022-10-31T15:58:41;14.83;;;7.93;;
22894;SDS011;11614;52.494;6.976;2022-10-31T16:01:28;25.67;;;16.93;;
22894;SDS011;11614;52.494;6.976;2022-10-31T16:06:25;30.80;;;18.17;;
22894;SDS011;11614;52.494;6.976;2022-10-31T16:08:51;36.00;;;23.10;;
22894;SDS011;11614;52.494;6.976;2022-10-31T16:14:15;26.63;;;14.53;;
22894;SDS011;11614;52.494;6.976;2022-10-31T16:16:45;29.13;;;17.97;;
22894;SDS011;11614;52.494;6.976;2022-10-31T16:19:16;24.27;;;14.40;;
22894;SDS011;11614;52.494;6.976;2022-10-31T16:21:45;29.03;;;16.47;;
22894;SDS011;11614;52.494;6.976;2022-10-31T16:24:17;28.33;;;17.63;;
22894;SDS011;11614;52.494;6.976;2022-10-31T16:26:48;29.07;;;19.07;;
22894;SDS011;11614;52.494;6.976;2022-10-31T16:31:57;30.77;;;15.93;;
22894;SDS011;11614;52.494;6.976;2022-10-31T16:34:23;19.03;;;9.43;;